sensor_id;sensor_type;location;lat;lon;timestamp;pressure;altitude;pressure_sealevel;temperature;humidity
59154;BME280;44935;48.944;9.418;2023-08-31T00:00:28;98131.74;;;16.62;56.45
59154;BME280;44935;48.944;9.418;2023-08-31T00:02:55;98136.39;;;16.37;56.70
59154;BME280;44935;48.944;9.418;2023-08-31T00:05:22;98127.75;;;17.12;55.72
59154;BME280;44935;48.944;9.418;2023-08-31T00:07:49;98126.95;;;17.33;55.31
59154;BME280;44935;48.944;9.418;2023-08-31T00:10:16;98125.48;;;17.59;54.34
59154;BME280;44935;48.944;9.418;2023-08-31T00:12:43;98125.55;;;17.17;54.02
59154;BME280;44935;48.944;9.418;2023-08-31T00:15:10;98125.87;;;17.76;53.61
59154;BME280;44935;48.944;9.418;2023-08-31T00:17:37;98132.68;;;17.75;52.87
59154;BME280;44935;48.944;9.418;2023-08-31T00:20:05;98130.12;;;17.71;52.59
59154;BME280;44935;48.944;9.418;2023-08-31T00:22:33;98131.54;;;17.84;52.78
59154;BME280;44935;48.944;9.418;2023-08-31T00:25:00;98131.93;;;17.85;52.62
59154;BME280;44935;48.944;9.418;2023-08-31T00:27:26;98124.84;;;17.54;52.87
59154;BME280;44935;48.944;9.418;2023-08-31T00:29:53;98121.40;;;17.87;52.11
59154;BME280;44935;48.944;9.418;2023-08-31T00:32:20;98119.41;;;17.96;51.87
59154;BME280;44935;48.944;9.418;2023-08-31T00:34:47;98120.81;;;18.22;50.80
59154;BME280;44935;48.944;9.418;2023-08-31T00:37:14;98123.52;;;18.38;50.97
59154;BME280;44935;48.944;9.418;2023-08-31T00:39:40;98134.07;;;17.58;51.37
59154;BME280;44935;48.944;9.418;2023-08-31T00:42:07;98134.86;;;17.50;51.19
59154;BME280;44935;48.944;9.418;2023-08-31T00:44:34;98139.58;;;17.86;51.50
59154;BME280;44935;48.944;9.418;2023-08-31T00:47:01;98141.59;;;17.85;51.33
59154;BME280;44935;48.944;9.418;2023-08-31T00:49:28;98143.09;;;17.50;51.55
59154;BME280;44935;48.944;9.418;2023-08-31T00:51:56;98151.89;;;17.17;52.61
59154;BME280;44935;48.944;9.418;2023-08-31T00:54:23;98150.12;;;16.35;53.88
59154;BME280;44935;48.944;9.418;2023-08-31T00:56:53;98148.10;;;16.40;54.59
59154;BME280;44935;48.944;9.418;2023-08-31T00:59:20;98153.88;;;16.15;54.57
59154;BME280;44935;48.944;9.418;2023-08-31T01:01:51;98155.96;;;16.62;53.94
59154;BME280;44935;48.944;9.418;2023-08-31T01:04:26;98157.50;;;16.92;54.03
59154;BME280;44935;48.944;9.418;2023-08-31T01:07:03;98155.14;;;16.54;53.62
59154;BME280;44935;48.944;9.418;2023-08-31T01:09:36;98162.67;;;16.44;53.81
59154;BME280;44935;48.944;9.418;2023-08-31T01:12:07;98161.83;;;16.62;53.98
59154;BME280;44935;48.944;9.418;2023-08-31T01:14:42;98148.56;;;15.81;55.23
59154;BME280;44935;48.944;9.418;2023-08-31T01:17:12;98138.13;;;15.84;54.86
59154;BME280;44935;48.944;9.418;2023-08-31T01:19:45;98144.52;;;17.22;52.42
59154;BME280;44935;48.944;9.418;2023-08-31T01:22:21;98148.00;;;17.25;52.16
59154;BME280;44935;48.944;9.418;2023-08-31T01:24:52;98147.30;;;17.23;51.62
59154;BME280;44935;48.944;9.418;2023-08-31T01:27:19;98146.38;;;16.98;51.21
59154;BME280;44935;48.944;9.418;2023-08-31T01:29:47;98147.01;;;17.41;50.59
59154;BME280;44935;48.944;9.418;2023-08-31T01:32:14;98143.18;;;16.95;50.87
59154;BME280;44935;48.944;9.418;2023-08-31T01:34:41;98141.07;;;17.06;50.31
59154;BME280;44935;48.944;9.418;2023-08-31T01:37:11;98142.28;;;17.39;50.55
59154;BME280;44935;48.944;9.418;2023-08-31T01:39:43;98147.43;;;17.09;51.20
59154;BME280;44935;48.944;9.418;2023-08-31T01:42:15;98152.39;;;16.86;51.17
59154;BME280;44935;48.944;9.418;2023-08-31T01:44:43;98152.86;;;16.39;52.57
59154;BME280;44935;48.944;9.418;2023-08-31T01:47:12;98157.38;;;16.72;52.25
59154;BME280;44935;48.944;9.418;2023-08-31T01:49:40;98157.00;;;15.97;52.56
59154;BME280;44935;48.944;9.418;2023-08-31T01:52:07;98167.33;;;15.80;53.62
59154;BME280;44935;48.944;9.418;2023-08-31T01:54:34;98174.27;;;15.80;54.02
59154;BME280;44935;48.944;9.418;2023-08-31T01:57:02;98173.97;;;16.10;53.81
59154;BME280;44935;48.944;9.418;2023-08-31T01:59:29;98178.10;;;16.05;53.71
59154;BME280;44935;48.944;9.418;2023-08-31T02:01:55;98179.71;;;15.80;54.14
59154;BME280;44935;48.944;9.418;2023-08-31T02:04:22;98182.05;;;15.74;54.33
59154;BME280;44935;48.944;9.418;2023-08-31T02:06:49;98182.34;;;15.81;54.45
59154;BME280;44935;48.944;9.418;2023-08-31T02:09:16;98185.24;;;15.92;54.48
59154;BME280;44935;48.944;9.418;2023-08-31T02:11:43;98182.04;;;16.13;53.33
59154;BME280;44935;48.944;9.418;2023-08-31T02:14:10;98180.02;;;16.01;53.51
59154;BME280;44935;48.944;9.418;2023-08-31T02:16:37;98184.48;;;16.25;53.30
59154;BME280;44935;48.944;9.418;2023-08-31T02:19:04;98187.34;;;16.02;53.54
59154;BME280;44935;48.944;9.418;2023-08-31T02:21:30;98188.34;;;15.68;53.90
59154;BME280;44935;48.944;9.418;2023-08-31T02:23:57;98187.79;;;15.97;53.66
59154;BME280;44935;48.944;9.418;2023-08-31T02:26:24;98182.95;;;16.01;53.58
59154;BME280;44935;48.944;9.418;2023-08-31T02:28:51;98178.54;;;15.90;53.42
59154;BME280;44935;48.944;9.418;2023-08-31T02:31:18;98178.97;;;15.95;53.60
59154;BME280;44935;48.944;9.418;2023-08-31T02:33:45;98180.11;;;16.23;53.41
59154;BME280;44935;48.944;9.418;2023-08-31T02:36:12;98183.20;;;16.39;53.31
59154;BME280;44935;48.944;9.418;2023-08-31T02:38:39;98185.12;;;16.46;53.40
59154;BME280;44935;48.944;9.418;2023-08-31T02:41:06;98184.86;;;16.24;53.24
59154;BME280;44935;48.944;9.418;2023-08-31T02:43:33;98187.06;;;16.85;52.96
59154;BME280;44935;48.944;9.418;2023-08-31T02:46:01;98187.52;;;16.18;53.17
59154;BME280;44935;48.944;9.418;2023-08-31T02:48:28;98190.27;;;16.48;52.79
59154;BME280;44935;48.944;9.418;2023-08-31T02:50:55;98195.52;;;16.56;52.36
59154;BME280;44935;48.944;9.418;2023-08-31T02:53:22;98192.54;;;16.30;52.92
59154;BME280;44935;48.944;9.418;2023-08-31T02:55:49;98187.95;;;16.78;52.45
59154;BME280;44935;48.944;9.418;2023-08-31T02:58:16;98189.45;;;16.29;52.84
59154;BME280;44935;48.944;9.418;2023-08-31T03:00:43;98192.30;;;16.44;52.76
59154;BME280;44935;48.944;9.418;2023-08-31T03:03:10;98193.45;;;16.52;52.79
59154;BME280;44935;48.944;9.418;2023-08-31T03:05:37;98195.52;;;16.48;52.68
59154;BME280;44935;48.944;9.418;2023-08-31T03:08:04;98200.57;;;16.62;52.29
59154;BME280;44935;48.944;9.418;2023-08-31T03:10:31;98200.28;;;16.65;51.97
59154;BME280;44935;48.944;9.418;2023-08-31T03:12:58;98200.09;;;16.33;52.41
59154;BME280;44935;48.944;9.418;2023-08-31T03:15:25;98199.07;;;16.62;52.36
59154;BME280;44935;48.944;9.418;2023-08-31T03:17:52;98196.10;;;16.85;51.84
59154;BME280;44935;48.944;9.418;2023-08-31T03:20:19;98195.34;;;16.57;52.58
59154;BME280;44935;48.944;9.418;2023-08-31T03:22:46;98196.36;;;16.96;52.06
59154;BME280;44935;48.944;9.418;2023-08-31T03:25:13;98203.28;;;16.82;52.47
59154;BME280;44935;48.944;9.418;2023-08-31T03:27:40;98206.56;;;16.63;52.23
59154;BME280;44935;48.944;9.418;2023-08-31T03:30:08;98204.17;;;16.75;52.60
59154;BME280;44935;48.944;9.418;2023-08-31T03:32:35;98204.46;;;16.48;52.63
59154;BME280;44935;48.944;9.418;2023-08-31T03:35:03;98213.04;;;16.31;52.79
59154;BME280;44935;48.944;9.418;2023-08-31T03:37:30;98215.97;;;16.91;52.73
59154;BME280;44935;48.944;9.418;2023-08-31T03:39:57;98219.00;;;16.62;52.84
59154;BME280;44935;48.944;9.418;2023-08-31T03:42:24;98222.55;;;16.57;52.52
59154;BME280;44935;48.944;9.418;2023-08-31T03:44:51;98223.57;;;16.16;52.54
59154;BME280;44935;48.944;9.418;2023-08-31T03:47:17;98221.62;;;16.45;53.26
59154;BME280;44935;48.944;9.418;2023-08-31T03:49:45;98221.58;;;16.09;53.30
59154;BME280;44935;48.944;9.418;2023-08-31T03:52:12;98218.84;;;16.10;53.09
59154;BME280;44935;48.944;9.418;2023-08-31T03:54:39;98221.28;;;16.52;52.86
59154;BME280;44935;48.944;9.418;2023-08-31T03:57:06;98221.59;;;15.87;52.95
59154;BME280;44935;48.944;9.418;2023-08-31T03:59:32;98225.20;;;15.82;53.66
59154;BME280;44935;48.944;9.418;2023-08-31T04:01:59;98224.36;;;15.80;54.20
59154;BME280;44935;48.944;9.418;2023-08-31T04:04:26;98228.37;;;15.26;54.70
59154;BME280;44935;48.944;9.418;2023-08-31T04:06:54;98227.23;;;15.95;53.67
59154;BME280;44935;48.944;9.418;2023-08-31T04:09:21;98222.79;;;15.96;53.16
59154;BME280;44935;48.944;9.418;2023-08-31T04:11:48;98227.64;;;16.14;53.05
59154;BME280;44935;48.944;9.418;2023-08-31T04:14:15;98234.87;;;16.00;53.56
59154;BME280;44935;48.944;9.418;2023-08-31T04:16:41;98242.36;;;15.28;54.21
59154;BME280;44935;48.944;9.418;2023-08-31T04:19:08;98238.69;;;15.42;54.45
59154;BME280;44935;48.944;9.418;2023-08-31T04:21:35;98241.22;;;15.59;54.03
59154;BME280;44935;48.944;9.418;2023-08-31T04:24:02;98250.29;;;15.58;54.51
59154;BME280;44935;48.944;9.418;2023-08-31T04:26:29;98248.20;;;15.55;54.19
59154;BME280;44935;48.944;9.418;2023-08-31T04:28:56;98249.17;;;15.62;54.31
59154;BME280;44935;48.944;9.418;2023-08-31T04:31:23;98249.11;;;15.35;54.28
59154;BME280;44935;48.944;9.418;2023-08-31T04:33:50;98251.34;;;15.23;55.64
59154;BME280;44935;48.944;9.418;2023-08-31T04:36:16;98250.97;;;14.95;55.14
59154;BME280;44935;48.944;9.418;2023-08-31T04:38:43;98253.26;;;14.95;55.51
59154;BME280;44935;48.944;9.418;2023-08-31T04:41:10;98252.49;;;15.32;55.86
59154;BME280;44935;48.944;9.418;2023-08-31T04:43:37;98250.53;;;15.03;55.55
59154;BME280;44935;48.944;9.418;2023-08-31T04:46:04;98246.43;;;15.00;55.67
59154;BME280;44935;48.944;9.418;2023-08-31T04:48:31;98247.91;;;14.99;55.08
59154;BME280;44935;48.944;9.418;2023-08-31T04:50:58;98255.77;;;14.69;56.07
59154;BME280;44935;48.944;9.418;2023-08-31T04:53:26;98260.53;;;14.58;56.73
59154;BME280;44935;48.944;9.418;2023-08-31T04:55:53;98264.85;;;14.61;57.18
59154;BME280;44935;48.944;9.418;2023-08-31T04:58:20;98267.27;;;14.42;56.86
59154;BME280;44935;48.944;9.418;2023-08-31T05:00:47;98272.73;;;13.90;57.38
59154;BME280;44935;48.944;9.418;2023-08-31T05:03:14;98272.51;;;14.38;57.05
59154;BME280;44935;48.944;9.418;2023-08-31T05:05:40;98271.77;;;14.83;56.45
59154;BME280;44935;48.944;9.418;2023-08-31T05:08:08;98275.51;;;14.79;56.86
59154;BME280;44935;48.944;9.418;2023-08-31T05:10:35;98276.59;;;14.75;56.94
59154;BME280;44935;48.944;9.418;2023-08-31T05:13:02;98281.71;;;14.54;56.97
59154;BME280;44935;48.944;9.418;2023-08-31T05:15:29;98279.72;;;14.72;57.14
59154;BME280;44935;48.944;9.418;2023-08-31T05:17:55;98281.95;;;14.93;56.29
59154;BME280;44935;48.944;9.418;2023-08-31T05:20:22;98287.65;;;14.22;57.31
59154;BME280;44935;48.944;9.418;2023-08-31T05:22:49;98287.86;;;14.25;57.71
59154;BME280;44935;48.944;9.418;2023-08-31T05:25:16;98287.48;;;14.24;57.78
59154;BME280;44935;48.944;9.418;2023-08-31T05:27:43;98292.71;;;13.78;58.62
59154;BME280;44935;48.944;9.418;2023-08-31T05:30:10;98292.24;;;13.99;58.46
59154;BME280;44935;48.944;9.418;2023-08-31T05:32:37;98297.61;;;14.10;58.25
59154;BME280;44935;48.944;9.418;2023-08-31T05:35:05;98297.29;;;14.24;57.72
59154;BME280;44935;48.944;9.418;2023-08-31T05:37:33;98300.22;;;14.62;57.33
59154;BME280;44935;48.944;9.418;2023-08-31T05:40:01;98305.76;;;14.53;57.55
59154;BME280;44935;48.944;9.418;2023-08-31T05:42:28;98314.53;;;14.53;57.82
59154;BME280;44935;48.944;9.418;2023-08-31T05:44:55;98319.45;;;14.31;58.10
59154;BME280;44935;48.944;9.418;2023-08-31T05:47:22;98322.30;;;14.08;58.94
59154;BME280;44935;48.944;9.418;2023-08-31T05:49:49;98320.40;;;14.21;59.43
59154;BME280;44935;48.944;9.418;2023-08-31T05:52:16;98319.01;;;14.03;59.40
59154;BME280;44935;48.944;9.418;2023-08-31T05:54:43;98320.52;;;14.23;59.04
59154;BME280;44935;48.944;9.418;2023-08-31T05:57:09;98323.63;;;14.42;59.12
59154;BME280;44935;48.944;9.418;2023-08-31T05:59:36;98321.08;;;14.48;58.97
59154;BME280;44935;48.944;9.418;2023-08-31T06:02:04;98320.15;;;14.18;59.05
59154;BME280;44935;48.944;9.418;2023-08-31T06:04:31;98318.32;;;14.10;58.42
59154;BME280;44935;48.944;9.418;2023-08-31T06:06:58;98320.66;;;14.57;57.93
59154;BME280;44935;48.944;9.418;2023-08-31T06:09:25;98316.50;;;14.59;57.95
59154;BME280;44935;48.944;9.418;2023-08-31T06:11:51;98319.64;;;14.48;58.37
59154;BME280;44935;48.944;9.418;2023-08-31T06:14:18;98324.21;;;14.59;57.86
59154;BME280;44935;48.944;9.418;2023-08-31T06:16:45;98326.03;;;14.60;58.30
59154;BME280;44935;48.944;9.418;2023-08-31T06:19:12;98332.71;;;14.28;57.60
59154;BME280;44935;48.944;9.418;2023-08-31T06:21:39;98338.36;;;13.99;58.38
59154;BME280;44935;48.944;9.418;2023-08-31T06:24:06;98336.94;;;14.32;58.42
59154;BME280;44935;48.944;9.418;2023-08-31T06:26:34;98343.69;;;14.32;58.84
59154;BME280;44935;48.944;9.418;2023-08-31T06:29:00;98340.32;;;14.93;57.61
59154;BME280;44935;48.944;9.418;2023-08-31T06:31:27;98346.10;;;14.50;56.64
59154;BME280;44935;48.944;9.418;2023-08-31T06:33:54;98352.94;;;14.75;57.37
59154;BME280;44935;48.944;9.418;2023-08-31T06:36:23;98350.86;;;14.42;56.75
59154;BME280;44935;48.944;9.418;2023-08-31T06:38:51;98354.28;;;14.68;57.21
59154;BME280;44935;48.944;9.418;2023-08-31T06:41:17;98352.52;;;15.14;56.81
59154;BME280;44935;48.944;9.418;2023-08-31T06:43:44;98350.64;;;15.19;55.44
59154;BME280;44935;48.944;9.418;2023-08-31T06:46:11;98356.89;;;15.27;56.15
59154;BME280;44935;48.944;9.418;2023-08-31T06:48:38;98362.27;;;14.79;55.64
59154;BME280;44935;48.944;9.418;2023-08-31T06:51:05;98369.00;;;14.65;57.65
59154;BME280;44935;48.944;9.418;2023-08-31T06:53:32;98378.08;;;14.02;58.07
59154;BME280;44935;48.944;9.418;2023-08-31T06:55:59;98376.40;;;14.01;59.33
59154;BME280;44935;48.944;9.418;2023-08-31T06:58:25;98375.91;;;13.82;59.84
59154;BME280;44935;48.944;9.418;2023-08-31T07:00:52;98377.15;;;14.20;59.79
59154;BME280;44935;48.944;9.418;2023-08-31T07:03:19;98380.20;;;14.50;57.69
59154;BME280;44935;48.944;9.418;2023-08-31T07:05:46;98380.34;;;14.79;58.13
59154;BME280;44935;48.944;9.418;2023-08-31T07:08:14;98379.67;;;14.89;56.48
59154;BME280;44935;48.944;9.418;2023-08-31T07:10:40;98378.67;;;14.98;56.97
59154;BME280;44935;48.944;9.418;2023-08-31T07:13:08;98380.53;;;14.89;56.64
59154;BME280;44935;48.944;9.418;2023-08-31T07:15:35;98385.53;;;14.79;57.20
59154;BME280;44935;48.944;9.418;2023-08-31T07:18:03;98394.54;;;14.18;58.59
59154;BME280;44935;48.944;9.418;2023-08-31T07:20:30;98396.20;;;13.94;57.38
59154;BME280;44935;48.944;9.418;2023-08-31T07:22:57;98400.16;;;14.29;58.51
59154;BME280;44935;48.944;9.418;2023-08-31T07:25:24;98398.03;;;14.33;58.93
59154;BME280;44935;48.944;9.418;2023-08-31T07:27:51;98396.82;;;13.68;58.90
59154;BME280;44935;48.944;9.418;2023-08-31T07:30:18;98398.69;;;13.90;60.80
59154;BME280;44935;48.944;9.418;2023-08-31T07:32:44;98404.46;;;13.93;60.05
59154;BME280;44935;48.944;9.418;2023-08-31T07:35:12;98405.87;;;13.89;60.18
59154;BME280;44935;48.944;9.418;2023-08-31T07:37:39;98409.87;;;14.45;58.90
59154;BME280;44935;48.944;9.418;2023-08-31T07:40:07;98414.92;;;14.05;58.89
59154;BME280;44935;48.944;9.418;2023-08-31T07:42:34;98421.71;;;14.33;59.42
59154;BME280;44935;48.944;9.418;2023-08-31T07:45:02;98424.09;;;13.84;59.59
59154;BME280;44935;48.944;9.418;2023-08-31T07:47:29;98430.18;;;14.55;60.30
59154;BME280;44935;48.944;9.418;2023-08-31T07:49:56;98433.24;;;14.15;58.52
59154;BME280;44935;48.944;9.418;2023-08-31T07:52:23;98440.67;;;14.43;58.49
59154;BME280;44935;48.944;9.418;2023-08-31T07:54:50;98436.17;;;14.94;58.35
59154;BME280;44935;48.944;9.418;2023-08-31T07:57:17;98435.28;;;14.84;56.25
59154;BME280;44935;48.944;9.418;2023-08-31T07:59:43;98429.62;;;15.00;57.59
59154;BME280;44935;48.944;9.418;2023-08-31T08:02:10;98431.13;;;14.53;56.57
59154;BME280;44935;48.944;9.418;2023-08-31T08:04:37;98429.04;;;15.47;55.46
59154;BME280;44935;48.944;9.418;2023-08-31T08:07:04;98430.37;;;14.92;55.18
59154;BME280;44935;48.944;9.418;2023-08-31T08:09:31;98433.32;;;14.39;56.67
59154;BME280;44935;48.944;9.418;2023-08-31T08:11:58;98424.39;;;15.82;54.61
59154;BME280;44935;48.944;9.418;2023-08-31T08:14:25;98419.34;;;15.70;53.28
59154;BME280;44935;48.944;9.418;2023-08-31T08:16:51;98424.44;;;15.90;53.40
59154;BME280;44935;48.944;9.418;2023-08-31T08:19:22;98422.95;;;15.87;53.09
59154;BME280;44935;48.944;9.418;2023-08-31T08:21:49;98426.64;;;16.50;53.15
59154;BME280;44935;48.944;9.418;2023-08-31T08:24:15;98424.25;;;16.45;51.69
59154;BME280;44935;48.944;9.418;2023-08-31T08:26:42;98425.50;;;15.95;51.74
59154;BME280;44935;48.944;9.418;2023-08-31T08:29:09;98424.71;;;15.42;51.84
59154;BME280;44935;48.944;9.418;2023-08-31T08:31:36;98429.83;;;15.20;53.32
59154;BME280;44935;48.944;9.418;2023-08-31T08:34:03;98432.07;;;15.04;54.20
59154;BME280;44935;48.944;9.418;2023-08-31T08:36:30;98433.15;;;14.85;54.14
59154;BME280;44935;48.944;9.418;2023-08-31T08:38:57;98427.32;;;16.11;52.04
59154;BME280;44935;48.944;9.418;2023-08-31T08:41:24;98434.27;;;15.67;53.19
59154;BME280;44935;48.944;9.418;2023-08-31T08:43:51;98437.46;;;15.86;52.18
59154;BME280;44935;48.944;9.418;2023-08-31T08:46:18;98441.41;;;16.11;53.16
59154;BME280;44935;48.944;9.418;2023-08-31T08:48:46;98444.03;;;15.78;51.85
59154;BME280;44935;48.944;9.418;2023-08-31T08:51:14;98447.11;;;16.14;51.82
59154;BME280;44935;48.944;9.418;2023-08-31T08:53:43;98443.24;;;16.31;51.21
59154;BME280;44935;48.944;9.418;2023-08-31T08:56:10;98447.61;;;15.62;50.89
59154;BME280;44935;48.944;9.418;2023-08-31T08:58:37;98455.39;;;15.22;50.57
59154;BME280;44935;48.944;9.418;2023-08-31T09:01:04;98451.00;;;14.87;51.99
59154;BME280;44935;48.944;9.418;2023-08-31T09:03:34;98455.38;;;15.51;51.98
59154;BME280;44935;48.944;9.418;2023-08-31T09:06:01;98453.88;;;15.15;49.83
59154;BME280;44935;48.944;9.418;2023-08-31T09:08:28;98450.32;;;15.61;50.97
59154;BME280;44935;48.944;9.418;2023-08-31T09:10:56;98454.30;;;16.71;50.48
59154;BME280;44935;48.944;9.418;2023-08-31T09:13:27;98457.94;;;17.33;46.09
59154;BME280;44935;48.944;9.418;2023-08-31T09:15:55;98461.09;;;16.24;48.67
59154;BME280;44935;48.944;9.418;2023-08-31T09:18:24;98466.86;;;15.69;49.76
59154;BME280;44935;48.944;9.418;2023-08-31T09:20:52;98467.07;;;14.94;48.73
59154;BME280;44935;48.944;9.418;2023-08-31T09:23:19;98468.10;;;14.32;49.71
59154;BME280;44935;48.944;9.418;2023-08-31T09:25:49;98470.26;;;14.60;50.84
59154;BME280;44935;48.944;9.418;2023-08-31T09:28:16;98469.33;;;14.69;49.95
59154;BME280;44935;48.944;9.418;2023-08-31T09:31:05;98471.45;;;14.47;50.28
59154;BME280;44935;48.944;9.418;2023-08-31T09:33:34;98474.43;;;15.06;49.97
59154;BME280;44935;48.944;9.418;2023-08-31T09:36:02;98469.30;;;15.02;50.14
59154;BME280;44935;48.944;9.418;2023-08-31T09:38:30;98467.69;;;15.21;48.32
59154;BME280;44935;48.944;9.418;2023-08-31T09:41:03;98467.37;;;15.09;48.55
59154;BME280;44935;48.944;9.418;2023-08-31T09:43:30;98473.04;;;15.26;49.00
59154;BME280;44935;48.944;9.418;2023-08-31T09:45:59;98471.93;;;15.21;48.50
59154;BME280;44935;48.944;9.418;2023-08-31T09:48:27;98476.13;;;15.80;48.42
59154;BME280;44935;48.944;9.418;2023-08-31T09:50:55;98466.20;;;15.86;45.96
59154;BME280;44935;48.944;9.418;2023-08-31T09:53:24;98463.17;;;16.10;44.65
59154;BME280;44935;48.944;9.418;2023-08-31T09:55:52;98469.09;;;16.01;47.01
59154;BME280;44935;48.944;9.418;2023-08-31T09:58:20;98467.98;;;16.05;46.81
59154;BME280;44935;48.944;9.418;2023-08-31T10:00:49;98474.05;;;16.16;44.92
59154;BME280;44935;48.944;9.418;2023-08-31T10:03:17;98475.49;;;15.68;46.09
59154;BME280;44935;48.944;9.418;2023-08-31T10:05:46;98476.34;;;16.77;44.13
59154;BME280;44935;48.944;9.418;2023-08-31T10:08:15;98477.21;;;16.34;44.50
59154;BME280;44935;48.944;9.418;2023-08-31T10:10:42;98474.24;;;16.53;44.62
59154;BME280;44935;48.944;9.418;2023-08-31T10:13:09;98478.48;;;16.25;46.65
59154;BME280;44935;48.944;9.418;2023-08-31T10:15:38;98473.97;;;16.87;42.42
59154;BME280;44935;48.944;9.418;2023-08-31T10:18:06;98471.92;;;16.90;42.94
59154;BME280;44935;48.944;9.418;2023-08-31T10:20:34;98473.04;;;17.16;44.81
59154;BME280;44935;48.944;9.418;2023-08-31T10:23:03;98468.89;;;16.95;44.31
59154;BME280;44935;48.944;9.418;2023-08-31T10:26:00;98470.99;;;17.10;45.89
59154;BME280;44935;48.944;9.418;2023-08-31T10:28:28;98471.10;;;16.89;43.02
59154;BME280;44935;48.944;9.418;2023-08-31T10:31:02;98476.12;;;17.15;44.07
59154;BME280;44935;48.944;9.418;2023-08-31T10:33:32;98473.14;;;17.63;41.64
59154;BME280;44935;48.944;9.418;2023-08-31T10:36:00;98468.32;;;18.08;42.32
59154;BME280;44935;48.944;9.418;2023-08-31T10:38:29;98471.22;;;18.17;42.43
59154;BME280;44935;48.944;9.418;2023-08-31T10:41:02;98471.47;;;18.10;39.09
59154;BME280;44935;48.944;9.418;2023-08-31T10:43:43;98469.84;;;17.38;40.56
59154;BME280;44935;48.944;9.418;2023-08-31T10:46:35;98471.03;;;16.78;40.31
59154;BME280;44935;48.944;9.418;2023-08-31T10:49:14;98469.74;;;15.98;40.41
59154;BME280;44935;48.944;9.418;2023-08-31T10:51:43;98467.32;;;16.40;41.13
59154;BME280;44935;48.944;9.418;2023-08-31T10:54:13;98465.94;;;16.00;42.21
59154;BME280;44935;48.944;9.418;2023-08-31T10:57:01;98468.37;;;16.68;41.44
59154;BME280;44935;48.944;9.418;2023-08-31T10:59:43;98468.93;;;16.31;40.70
59154;BME280;44935;48.944;9.418;2023-08-31T11:02:36;98469.02;;;15.94;41.72
59154;BME280;44935;48.944;9.418;2023-08-31T11:05:08;98469.61;;;16.60;40.87
59154;BME280;44935;48.944;9.418;2023-08-31T11:07:43;98471.37;;;16.17;41.64
59154;BME280;44935;48.944;9.418;2023-08-31T11:10:13;98475.28;;;15.89;41.20
59154;BME280;44935;48.944;9.418;2023-08-31T11:12:42;98477.75;;;16.73;41.39
59154;BME280;44935;48.944;9.418;2023-08-31T11:15:12;98474.81;;;16.41;41.05
59154;BME280;44935;48.944;9.418;2023-08-31T11:17:39;98472.52;;;16.38;40.60
59154;BME280;44935;48.944;9.418;2023-08-31T11:20:08;98476.48;;;15.78;40.34
59154;BME280;44935;48.944;9.418;2023-08-31T11:22:39;98474.95;;;15.94;41.69
59154;BME280;44935;48.944;9.418;2023-08-31T11:25:09;98473.86;;;16.05;40.84
59154;BME280;44935;48.944;9.418;2023-08-31T11:27:36;98470.22;;;16.08;40.34
59154;BME280;44935;48.944;9.418;2023-08-31T11:30:03;98469.76;;;16.09;42.35
59154;BME280;44935;48.944;9.418;2023-08-31T11:32:30;98465.72;;;16.15;41.95
59154;BME280;44935;48.944;9.418;2023-08-31T11:34:57;98468.11;;;16.78;43.24
59154;BME280;44935;48.944;9.418;2023-08-31T11:37:24;98464.53;;;16.57;40.29
59154;BME280;44935;48.944;9.418;2023-08-31T11:39:51;98461.21;;;16.25;40.35
59154;BME280;44935;48.944;9.418;2023-08-31T11:42:20;98462.48;;;16.29;41.07
59154;BME280;44935;48.944;9.418;2023-08-31T11:44:48;98463.52;;;16.29;42.27
59154;BME280;44935;48.944;9.418;2023-08-31T11:47:16;98464.01;;;16.18;41.12
59154;BME280;44935;48.944;9.418;2023-08-31T11:49:44;98469.80;;;16.40;42.21
59154;BME280;44935;48.944;9.418;2023-08-31T11:52:13;98467.07;;;16.47;40.92
59154;BME280;44935;48.944;9.418;2023-08-31T11:54:42;98464.59;;;16.21;41.43
59154;BME280;44935;48.944;9.418;2023-08-31T11:57:10;98467.90;;;16.50;41.29
59154;BME280;44935;48.944;9.418;2023-08-31T11:59:38;98473.73;;;16.73;41.90
59154;BME280;44935;48.944;9.418;2023-08-31T12:02:06;98467.18;;;16.50;41.99
59154;BME280;44935;48.944;9.418;2023-08-31T12:04:41;98465.55;;;17.19;41.37
59154;BME280;44935;48.944;9.418;2023-08-31T12:07:08;98467.52;;;17.46;42.33
59154;BME280;44935;48.944;9.418;2023-08-31T12:09:36;98465.56;;;16.63;41.06
59154;BME280;44935;48.944;9.418;2023-08-31T12:12:03;98466.82;;;16.90;42.56
59154;BME280;44935;48.944;9.418;2023-08-31T12:14:31;98463.21;;;16.92;40.52
59154;BME280;44935;48.944;9.418;2023-08-31T12:17:05;98462.03;;;17.17;40.80
59154;BME280;44935;48.944;9.418;2023-08-31T12:19:33;98462.01;;;17.70;41.44
59154;BME280;44935;48.944;9.418;2023-08-31T12:22:00;98465.97;;;17.14;40.80
59154;BME280;44935;48.944;9.418;2023-08-31T12:24:27;98464.28;;;17.20;39.82
59154;BME280;44935;48.944;9.418;2023-08-31T12:26:54;98461.84;;;17.75;41.58
59154;BME280;44935;48.944;9.418;2023-08-31T12:29:21;98464.97;;;18.05;38.87
59154;BME280;44935;48.944;9.418;2023-08-31T12:31:48;98466.27;;;17.60;40.01
59154;BME280;44935;48.944;9.418;2023-08-31T12:34:15;98459.07;;;19.00;39.13
59154;BME280;44935;48.944;9.418;2023-08-31T12:36:43;98458.44;;;19.55;38.14
59154;BME280;44935;48.944;9.418;2023-08-31T12:39:10;98454.66;;;18.40;37.26
59154;BME280;44935;48.944;9.418;2023-08-31T12:41:38;98457.54;;;18.40;38.19
59154;BME280;44935;48.944;9.418;2023-08-31T12:44:05;98461.20;;;17.83;41.02
59154;BME280;44935;48.944;9.418;2023-08-31T12:46:33;98456.54;;;18.31;38.98
59154;BME280;44935;48.944;9.418;2023-08-31T12:49:00;98459.62;;;18.47;40.55
59154;BME280;44935;48.944;9.418;2023-08-31T12:51:28;98457.66;;;19.02;41.87
59154;BME280;44935;48.944;9.418;2023-08-31T12:53:55;98454.86;;;18.02;39.95
59154;BME280;44935;48.944;9.418;2023-08-31T12:56:22;98450.50;;;18.57;39.89
59154;BME280;44935;48.944;9.418;2023-08-31T12:58:50;98445.58;;;19.28;38.50
59154;BME280;44935;48.944;9.418;2023-08-31T13:01:18;98440.33;;;19.98;37.17
59154;BME280;44935;48.944;9.418;2023-08-31T13:03:46;98440.07;;;20.24;37.93